createdAt,value
2023-05-03T00:01:30.546Z,11.60
2023-05-03T00:03:58.193Z,11.69
2023-05-03T00:06:26.863Z,11.91
2023-05-03T00:08:54.608Z,11.64
2023-05-03T00:11:23.727Z,12.13
2023-05-03T00:13:51.439Z,11.60
2023-05-03T00:16:20.075Z,11.21
2023-05-03T00:18:49.132Z,11.37
2023-05-03T00:21:17.093Z,11.95
2023-05-03T00:23:44.798Z,11.78
2023-05-03T00:26:12.480Z,12.26
2023-05-03T00:28:41.566Z,11.36
2023-05-03T00:31:09.720Z,12.27
2023-05-03T00:33:37.517Z,11.31
2023-05-03T00:36:09.429Z,11.40
2023-05-03T00:38:37.176Z,11.80
2023-05-03T00:41:04.991Z,11.22
2023-05-03T00:43:32.965Z,11.37
2023-05-03T00:46:15.219Z,11.38
2023-05-03T00:48:44.873Z,11.07
2023-05-03T00:51:14.617Z,11.52
2023-05-03T00:53:42.666Z,11.33
2023-05-03T00:56:11.259Z,11.33
2023-05-03T00:58:40.486Z,11.29
2023-05-03T01:01:09.894Z,11.82
2023-05-03T01:03:41.491Z,11.46
2023-05-03T01:06:12.839Z,11.27
2023-05-03T01:08:46.114Z,10.98
2023-05-03T01:11:16.187Z,11.11
2023-05-03T01:13:50.885Z,11.29
2023-05-03T01:16:44.393Z,11.43
2023-05-03T01:19:20.159Z,11.64
2023-05-03T01:21:49.841Z,11.50
2023-05-03T01:24:20.108Z,11.46
2023-05-03T01:26:49.212Z,11.54
2023-05-03T01:29:16.906Z,11.19
2023-05-03T01:31:47.542Z,10.98
2023-05-03T01:34:23.964Z,11.33
2023-05-03T01:36:52.037Z,11.24
2023-05-03T01:39:22.600Z,11.03
2023-05-03T01:41:52.512Z,10.99
2023-05-03T01:44:21.053Z,11.01
2023-05-03T01:46:49.764Z,10.90
2023-05-03T01:49:17.460Z,10.84
2023-05-03T01:51:45.139Z,10.89
2023-05-03T01:54:12.924Z,10.43
2023-05-03T01:56:41.156Z,11.12
2023-05-03T01:59:10.808Z,10.76
2023-05-03T02:01:38.616Z,10.92
2023-05-03T02:04:06.397Z,10.80
2023-05-03T02:06:34.128Z,10.41
2023-05-03T02:09:02.056Z,10.82
2023-05-03T02:11:29.698Z,10.75
2023-05-03T02:16:57.712Z,10.39
2023-05-03T02:19:25.456Z,10.84
2023-05-03T02:21:53.562Z,10.92
2023-05-03T02:24:21.285Z,10.50
2023-05-03T02:26:48.945Z,10.80
2023-05-03T02:29:16.620Z,10.49
2023-05-03T02:31:44.459Z,10.10
2023-05-03T02:34:13.603Z,10.20
2023-05-03T02:36:41.346Z,10.23
2023-05-03T02:39:09.052Z,10.03
2023-05-03T02:41:36.720Z,10.04
2023-05-03T02:44:04.539Z,10.25
2023-05-03T02:46:32.249Z,9.98
2023-05-03T02:48:59.980Z,10.02
2023-05-03T02:51:29.671Z,10.25
2023-05-03T02:53:57.381Z,9.93
2023-05-03T02:56:26.611Z,9.92
2023-05-03T02:58:54.348Z,10.04
2023-05-03T03:01:22.344Z,9.89
2023-05-03T03:03:50.408Z,10.17
2023-05-03T03:06:18.339Z,10.21
2023-05-03T03:08:47.469Z,10.14
2023-05-03T03:11:15.600Z,10.13
2023-05-03T03:13:43.332Z,10.17
2023-05-03T03:16:11.638Z,9.92
2023-05-03T03:18:39.419Z,9.57
2023-05-03T03:21:07.254Z,10.24
2023-05-03T03:23:34.919Z,10.35
2023-05-03T03:26:04.091Z,10.15
2023-05-03T03:28:32.592Z,9.87
2023-05-03T03:31:00.353Z,10.04
2023-05-03T03:33:28.093Z,9.47
2023-05-03T03:35:55.768Z,8.94
2023-05-03T03:38:23.421Z,9.54
2023-05-03T03:40:52.179Z,9.68
2023-05-03T03:43:21.321Z,9.86
2023-05-03T03:45:49.031Z,9.54
2023-05-03T03:48:17.011Z,9.61
2023-05-03T03:50:44.874Z,9.78
2023-05-03T03:53:12.707Z,9.82
2023-05-03T03:55:40.495Z,10.33
2023-05-03T03:58:08.395Z,10.22
2023-05-03T04:00:38.033Z,10.28
2023-05-03T04:03:07.783Z,9.32
2023-05-03T04:05:35.877Z,9.96
2023-05-03T04:08:03.621Z,9.70
2023-05-03T04:10:31.285Z,10.10
2023-05-03T04:12:58.948Z,9.92
2023-05-03T04:15:26.785Z,10.16
2023-05-03T04:17:55.957Z,10.35
2023-05-03T04:20:24.006Z,9.93
2023-05-03T04:22:52.013Z,9.09
2023-05-03T04:25:19.960Z,9.55
2023-05-03T04:27:48.916Z,10.14
2023-05-03T04:30:17.563Z,9.86
2023-05-03T04:32:45.333Z,10.08
2023-05-03T04:35:14.417Z,10.34
2023-05-03T04:37:42.797Z,10.94
2023-05-03T04:40:12.482Z,11.24
2023-05-03T04:42:41.167Z,10.54
2023-05-03T04:45:10.932Z,11.25
2023-05-03T04:47:38.685Z,10.71
2023-05-03T04:50:08.616Z,10.80
2023-05-03T04:52:37.857Z,10.85
2023-05-03T04:55:06.492Z,10.67
2023-05-03T04:57:35.170Z,11.24
2023-05-03T05:00:04.532Z,11.27
2023-05-03T05:02:32.426Z,11.56
2023-05-03T05:05:00.206Z,11.41
2023-05-03T05:07:27.868Z,11.35
2023-05-03T05:09:56.972Z,11.51
2023-05-03T05:12:24.698Z,11.80
2023-05-03T05:14:52.355Z,11.84
2023-05-03T05:17:20.333Z,12.21
2023-05-03T05:19:48.078Z,12.50
2023-05-03T05:22:35.980Z,12.27
2023-05-03T05:25:05.812Z,12.37
2023-05-03T05:27:33.605Z,12.77
2023-05-03T05:30:01.594Z,12.45
2023-05-03T05:32:30.006Z,12.71
2023-05-03T05:34:57.818Z,12.43
2023-05-03T05:37:26.196Z,12.94
2023-05-03T05:39:54.418Z,12.80
2023-05-03T05:42:23.618Z,12.00
2023-05-03T05:44:52.438Z,12.75
2023-05-03T05:47:20.358Z,12.97
2023-05-03T05:49:48.299Z,13.06
2023-05-03T05:52:18.262Z,12.42
2023-05-03T05:54:45.959Z,12.79
2023-05-03T05:57:14.154Z,13.07
2023-05-03T05:59:43.282Z,13.70
2023-05-03T06:02:16.975Z,13.87
2023-05-03T06:04:45.010Z,13.42
2023-05-03T06:07:12.801Z,13.69
2023-05-03T06:09:40.497Z,14.26
2023-05-03T06:12:08.501Z,13.18
2023-05-03T06:14:36.512Z,13.02
2023-05-03T06:17:05.707Z,13.74
2023-05-03T06:19:33.435Z,13.73
2023-05-03T06:22:01.154Z,14.25
2023-05-03T06:24:31.571Z,13.81
2023-05-03T06:27:00.197Z,14.67
2023-05-03T06:29:28.401Z,14.10
2023-05-03T06:31:56.134Z,14.58
2023-05-03T06:34:25.281Z,14.46
2023-05-03T06:36:53.179Z,13.32
2023-05-03T06:39:21.052Z,13.27
2023-05-03T06:41:48.861Z,13.86
2023-05-03T06:44:16.557Z,14.37
2023-05-03T06:46:44.335Z,13.96
2023-05-03T06:49:12.226Z,13.98
2023-05-03T06:51:41.444Z,14.36
2023-05-03T06:54:09.895Z,14.63
2023-05-03T06:56:38.159Z,13.93
2023-05-03T06:59:16.566Z,14.83
2023-05-03T07:01:44.363Z,14.45
2023-05-03T07:04:12.389Z,14.70
2023-05-03T07:06:55.526Z,14.50
2023-05-03T07:09:39.320Z,14.97
2023-05-03T07:12:10.353Z,15.77
2023-05-03T07:14:38.382Z,15.87
2023-05-03T07:17:06.109Z,16.30
2023-05-03T07:19:33.946Z,16.33
2023-05-03T07:22:03.621Z,15.20
2023-05-03T07:24:31.324Z,14.59
2023-05-03T07:26:59.260Z,15.14
2023-05-03T07:29:45.469Z,15.53
2023-05-03T07:32:13.519Z,15.53
2023-05-03T07:34:41.404Z,16.66
2023-05-03T07:37:10.628Z,16.08
2023-05-03T07:39:38.362Z,15.60
2023-05-03T07:42:06.356Z,16.58
2023-05-03T07:44:34.075Z,15.92
2023-05-03T07:47:01.952Z,16.28
2023-05-03T07:49:30.971Z,16.22
2023-05-03T07:51:59.884Z,15.46
2023-05-03T07:54:29.010Z,15.32
2023-05-03T07:59:45.212Z,14.90
2023-05-03T08:02:13.048Z,15.91
2023-05-03T08:04:41.313Z,15.70
2023-05-03T08:07:09.684Z,15.09
2023-05-03T08:09:38.755Z,15.62
2023-05-03T08:12:07.026Z,15.64
2023-05-03T08:14:34.977Z,15.83
2023-05-03T08:17:04.793Z,14.87
2023-05-03T08:19:34.536Z,16.40
2023-05-03T08:22:03.313Z,15.47
2023-05-03T08:24:31.104Z,16.06
2023-05-03T08:27:00.284Z,16.22
2023-05-03T08:29:27.962Z,16.59
2023-05-03T08:32:14.312Z,16.95
2023-05-03T08:34:42.294Z,16.15
2023-05-03T08:37:10.031Z,16.60
2023-05-03T08:39:37.715Z,15.99
2023-05-03T08:42:09.686Z,16.43
2023-05-03T08:44:39.576Z,16.92
2023-05-03T08:47:10.503Z,16.69
2023-05-03T08:49:38.990Z,16.80
2023-05-03T08:52:07.724Z,17.52
2023-05-03T08:54:35.482Z,17.00
2023-05-03T08:57:03.174Z,18.03
2023-05-03T09:02:18.215Z,18.50
2023-05-03T09:04:46.559Z,18.55
2023-05-03T09:07:18.521Z,17.08
2023-05-03T09:09:47.257Z,17.38
2023-05-03T09:12:36.571Z,17.84
2023-05-03T09:15:06.489Z,17.19
2023-05-03T09:17:35.720Z,16.42
2023-05-03T09:20:03.764Z,17.96
2023-05-03T09:22:34.015Z,17.30
2023-05-03T09:25:02.292Z,17.52
2023-05-03T09:27:38.905Z,18.25
2023-05-03T09:30:36.884Z,17.73
2023-05-03T09:33:22.077Z,17.99
2023-05-03T09:35:57.487Z,16.92
2023-05-03T09:38:37.783Z,17.84
2023-05-03T09:41:07.023Z,17.80
2023-05-03T09:43:34.998Z,17.85
2023-05-03T09:46:10.050Z,19.02
2023-05-03T09:48:39.792Z,17.80
2023-05-03T09:51:08.106Z,17.45
2023-05-03T09:53:36.876Z,18.48
2023-05-03T09:56:06.103Z,17.75
2023-05-03T09:58:35.289Z,17.67
2023-05-03T10:01:03.256Z,18.71
2023-05-03T10:06:24.553Z,18.16
2023-05-03T10:08:54.708Z,18.80
2023-05-03T10:11:25.370Z,18.25
2023-05-03T10:13:53.094Z,17.43
2023-05-03T10:16:24.588Z,18.27
2023-05-03T10:18:55.560Z,18.18
2023-05-03T10:21:33.167Z,19.15
2023-05-03T10:24:16.386Z,19.21
2023-05-03T10:26:46.445Z,19.72
2023-05-03T10:29:49.357Z,19.03
2023-05-03T10:35:53.217Z,18.60
2023-05-03T10:38:24.256Z,18.74
2023-05-03T10:40:52.517Z,18.50
2023-05-03T10:43:42.451Z,19.71
2023-05-03T10:46:12.081Z,19.92
2023-05-03T10:48:39.833Z,19.67
2023-05-03T10:51:33.604Z,20.40
2023-05-03T10:54:02.703Z,19.20
2023-05-03T10:56:30.536Z,19.00
2023-05-03T10:58:58.998Z,19.70
2023-05-03T11:01:28.345Z,18.99
2023-05-03T11:04:03.583Z,19.14
2023-05-03T11:06:33.706Z,19.80
2023-05-03T11:09:04.869Z,19.09
2023-05-03T11:11:32.719Z,18.88
2023-05-03T11:14:00.452Z,18.66
2023-05-03T11:16:28.295Z,18.89
2023-05-03T11:18:56.300Z,19.92
2023-05-03T11:21:24.514Z,19.91
2023-05-03T11:23:52.205Z,19.56
2023-05-03T11:26:26.302Z,19.46
2023-05-03T11:28:55.199Z,20.19
2023-05-03T11:31:23.383Z,20.46
2023-05-03T11:33:51.534Z,20.53
2023-05-03T11:36:37.443Z,22.14
2023-05-03T11:39:06.856Z,20.18
2023-05-03T11:41:36.893Z,18.67
2023-05-03T11:44:16.324Z,19.97
2023-05-03T11:46:45.626Z,20.52
2023-05-03T11:49:18.892Z,21.05
2023-05-03T11:54:33.407Z,21.21
2023-05-03T11:57:13.450Z,22.25
2023-05-03T11:59:41.902Z,20.92
2023-05-03T12:02:11.797Z,21.48
2023-05-03T12:04:42.953Z,21.86
2023-05-03T12:07:13.380Z,22.75
2023-05-03T12:09:44.738Z,21.29
2023-05-03T12:12:26.211Z,21.61
2023-05-03T12:14:59.285Z,20.56
2023-05-03T12:17:38.814Z,20.80
2023-05-03T12:21:03.058Z,21.67
2023-05-03T12:23:09.854Z,21.99
2023-05-03T12:25:39.558Z,23.24
2023-05-03T12:28:19.422Z,22.43
2023-05-03T12:30:48.996Z,23.79
2023-05-03T12:33:22.048Z,23.11
2023-05-03T12:35:53.445Z,22.84
2023-05-03T12:38:23.912Z,23.65
2023-05-03T12:40:53.263Z,23.35
2023-05-03T12:43:22.856Z,22.98
2023-05-03T12:46:01.208Z,24.54
2023-05-03T12:48:38.722Z,25.27
2023-05-03T12:51:19.457Z,24.26
2023-05-03T12:53:54.121Z,25.91
2023-05-03T12:56:40.133Z,26.35
2023-05-03T13:06:43.862Z,25.92
2023-05-03T13:09:19.149Z,24.34
2023-05-03T13:11:50.206Z,27.13
2023-05-03T13:14:19.595Z,23.84
2023-05-03T13:16:47.757Z,27.76
2023-05-03T13:19:16.582Z,26.53
2023-05-03T13:21:44.217Z,26.82
2023-05-03T13:24:11.929Z,27.33
2023-05-03T13:26:39.535Z,26.69
2023-05-03T13:29:07.493Z,27.38
2023-05-03T13:31:36.565Z,25.28
2023-05-03T13:34:04.404Z,27.17
2023-05-03T13:36:33.399Z,25.41
2023-05-03T13:39:01.898Z,25.88
2023-05-03T13:41:29.634Z,25.79
2023-05-03T13:43:57.464Z,26.23
2023-05-03T13:46:25.402Z,25.65
2023-05-03T13:48:56.416Z,26.58
2023-05-03T13:51:25.088Z,27.41
2023-05-03T13:53:53.122Z,28.05
2023-05-03T13:56:21.670Z,27.18
2023-05-03T13:58:49.433Z,28.05
2023-05-03T14:01:17.933Z,26.70
2023-05-03T14:03:45.961Z,27.19
2023-05-03T14:06:15.680Z,28.32
2023-05-03T14:08:43.586Z,26.27
2023-05-03T14:11:14.103Z,29.10
2023-05-03T14:13:55.468Z,27.69
2023-05-03T14:18:55.698Z,26.99
2023-05-03T14:21:25.050Z,27.65
2023-05-03T14:23:54.174Z,29.51
2023-05-03T14:26:23.993Z,27.30
2023-05-03T14:28:52.014Z,28.96
2023-05-03T14:31:19.758Z,30.36
2023-05-03T14:33:48.120Z,28.60
2023-05-03T14:36:15.872Z,26.81
2023-05-03T14:38:44.940Z,28.60
2023-05-03T14:41:12.723Z,29.21
2023-05-03T14:43:40.430Z,29.83
2023-05-03T14:46:09.075Z,30.67
2023-05-03T14:48:38.121Z,31.01
2023-05-03T14:51:06.553Z,29.83
2023-05-03T14:53:35.630Z,29.73
2023-05-03T14:56:04.981Z,29.55
2023-05-03T14:58:33.225Z,27.67
2023-05-03T15:01:01.179Z,27.81
2023-05-03T15:03:28.968Z,31.50
2023-05-03T15:05:56.683Z,31.06
2023-05-03T15:08:24.484Z,28.95
2023-05-03T15:10:52.532Z,29.44
2023-05-03T15:13:22.206Z,29.48
2023-05-03T15:15:50.058Z,31.34
2023-05-03T15:18:20.306Z,32.27
2023-05-03T15:20:48.110Z,33.69
2023-05-03T15:23:16.055Z,31.30
2023-05-03T15:25:43.776Z,29.24
2023-05-03T15:28:11.531Z,30.13
2023-05-03T15:30:40.622Z,32.53
2023-05-03T15:33:10.974Z,33.39
2023-05-03T15:35:41.592Z,33.33
2023-05-03T15:38:09.575Z,32.62
2023-05-03T15:40:52.593Z,31.51
2023-05-03T15:43:20.206Z,32.03
2023-05-03T15:45:49.422Z,29.98
2023-05-03T15:48:17.171Z,31.52
2023-05-03T15:50:44.908Z,33.79
2023-05-03T15:53:12.565Z,31.45
2023-05-03T15:55:40.308Z,28.60
2023-05-03T15:58:09.276Z,27.98
2023-05-03T16:00:46.889Z,29.35
2023-05-03T16:03:15.992Z,29.84
2023-05-03T16:05:44.951Z,26.64
2023-05-03T16:08:12.811Z,26.54
2023-05-03T16:10:40.609Z,27.85
2023-05-03T16:13:14.636Z,27.34
2023-05-03T16:15:42.565Z,30.72
2023-05-03T16:18:11.707Z,32.16
2023-05-03T16:20:41.346Z,32.23
2023-05-03T16:23:09.273Z,32.44
2023-05-03T16:25:37.020Z,31.65
2023-05-03T16:28:05.349Z,29.05
2023-05-03T16:30:33.712Z,28.63
2023-05-03T16:33:02.362Z,28.87
2023-05-03T16:35:30.291Z,30.20
2023-05-03T16:37:59.356Z,27.90
2023-05-03T16:40:40.590Z,28.22
2023-05-03T16:43:08.788Z,26.99
2023-05-03T16:45:37.641Z,28.55
2023-05-03T16:48:07.955Z,27.18
2023-05-03T16:50:37.197Z,24.76
2023-05-03T16:53:06.285Z,25.43
2023-05-03T16:55:33.940Z,25.60
2023-05-03T16:58:01.675Z,25.57
2023-05-03T17:00:30.436Z,24.66
2023-05-03T17:02:58.212Z,24.79
2023-05-03T17:05:32.729Z,24.05
2023-05-03T17:08:01.053Z,24.01
2023-05-03T17:10:31.507Z,22.28
2023-05-03T17:13:01.123Z,22.51
2023-05-03T17:15:29.076Z,23.97
2023-05-03T17:17:56.754Z,22.51
2023-05-03T17:20:24.399Z,22.92
2023-05-03T17:22:52.146Z,22.38
2023-05-03T17:25:20.051Z,21.77
2023-05-03T17:27:51.718Z,22.24
2023-05-03T17:30:21.282Z,20.80
2023-05-03T17:32:49.563Z,22.03
2023-05-03T17:35:17.346Z,23.35
2023-05-03T17:37:46.197Z,22.97
2023-05-03T17:40:14.531Z,22.26
2023-05-03T17:42:42.187Z,21.41
2023-05-03T17:45:12.771Z,22.89
2023-05-03T17:47:40.438Z,21.48
2023-05-03T17:50:09.989Z,22.12
2023-05-03T17:52:37.795Z,21.61
2023-05-03T17:55:06.459Z,21.76
2023-05-03T17:57:34.128Z,21.75
2023-05-03T18:00:02.166Z,20.32
2023-05-03T18:02:40.957Z,21.18
2023-05-03T18:05:09.354Z,20.86
2023-05-03T18:07:37.120Z,20.95
2023-05-03T18:10:07.140Z,20.95
2023-05-03T18:12:34.951Z,19.82
2023-05-03T18:15:02.641Z,19.85
2023-05-03T18:17:31.100Z,19.71
2023-05-03T18:20:00.597Z,19.99
2023-05-03T18:22:28.947Z,19.79
2023-05-03T18:24:59.087Z,19.46
2023-05-03T18:27:26.760Z,19.61
2023-05-03T18:29:54.543Z,19.36
2023-05-03T18:32:24.253Z,19.49
2023-05-03T18:34:52.114Z,19.51
2023-05-03T18:37:24.434Z,19.40
2023-05-03T18:39:52.660Z,18.79
2023-05-03T18:42:24.164Z,18.99
2023-05-03T18:44:52.128Z,18.73
2023-05-03T18:47:21.498Z,18.63
2023-05-03T18:49:52.828Z,18.25
2023-05-03T18:52:22.387Z,17.97
2023-05-03T18:54:50.973Z,18.27
2023-05-03T18:57:18.800Z,18.00
2023-05-03T18:59:59.319Z,17.96
2023-05-03T19:02:30.750Z,18.20
2023-05-03T19:04:58.916Z,17.93
2023-05-03T19:07:28.061Z,17.66
2023-05-03T19:09:56.050Z,17.63
2023-05-03T19:12:23.801Z,17.45
2023-05-03T19:14:51.492Z,17.28
2023-05-03T19:17:19.288Z,16.87
2023-05-03T19:19:48.956Z,17.12
2023-05-03T19:22:16.672Z,16.94
2023-05-03T19:24:46.020Z,17.06
2023-05-03T19:27:13.790Z,17.25
2023-05-03T19:29:41.460Z,16.68
2023-05-03T19:32:09.441Z,16.22
2023-05-03T19:34:37.212Z,16.38
2023-05-03T19:37:05.526Z,16.18
2023-05-03T19:39:35.639Z,16.23
2023-05-03T19:42:05.015Z,15.97
2023-05-03T19:44:33.402Z,16.32
2023-05-03T19:47:01.229Z,16.23
2023-05-03T19:49:29.145Z,15.89
2023-05-03T19:51:56.829Z,15.72
2023-05-03T19:54:24.582Z,15.91
2023-05-03T19:56:52.563Z,15.51
2023-05-03T19:59:21.647Z,15.63
2023-05-03T20:01:49.573Z,15.74
2023-05-03T20:04:17.340Z,15.59
2023-05-03T20:06:45.109Z,15.41
2023-05-03T20:09:12.868Z,15.40
2023-05-03T20:14:16.630Z,15.98
2023-05-03T20:16:45.854Z,16.16
2023-05-03T20:19:13.867Z,16.03
2023-05-03T20:21:41.728Z,16.16
2023-05-03T20:24:11.259Z,16.09
2023-05-03T20:26:39.625Z,15.25
2023-05-03T20:29:07.334Z,15.96
2023-05-03T20:31:35.413Z,15.95
2023-05-03T20:34:04.554Z,15.89
2023-05-03T20:36:32.906Z,15.40
2023-05-03T20:39:00.692Z,15.49
2023-05-03T20:41:28.620Z,15.65
2023-05-03T20:43:56.365Z,15.66
2023-05-03T20:46:24.391Z,15.18
2023-05-03T20:48:52.215Z,15.30
2023-05-03T20:51:21.616Z,15.60
2023-05-03T20:53:49.357Z,15.51
2023-05-03T20:56:17.537Z,15.37
2023-05-03T20:58:46.263Z,15.41
2023-05-03T21:01:14.425Z,15.68
2023-05-03T21:03:42.466Z,15.49
2023-05-03T21:06:10.445Z,15.35
2023-05-03T21:08:40.031Z,15.14
2023-05-03T21:11:08.429Z,15.41
2023-05-03T21:13:36.208Z,15.00
2023-05-03T21:16:04.298Z,15.07
2023-05-03T21:18:32.057Z,14.86
2023-05-03T21:20:59.762Z,14.96
2023-05-03T21:23:27.602Z,15.21
2023-05-03T21:25:57.126Z,14.78
2023-05-03T21:28:24.818Z,14.90
2023-05-03T21:30:55.063Z,15.22
2023-05-03T21:33:23.473Z,14.91
2023-05-03T21:35:51.209Z,15.37
2023-05-03T21:38:37.368Z,15.25
2023-05-03T21:41:07.691Z,15.17
2023-05-03T21:43:36.737Z,14.95
2023-05-03T21:46:07.718Z,15.08
2023-05-03T21:48:35.557Z,15.10
2023-05-03T21:51:03.537Z,15.21
2023-05-03T21:53:31.987Z,15.06
2023-05-03T21:55:59.715Z,15.23
2023-05-03T22:01:04.234Z,14.75
2023-05-03T22:03:32.245Z,15.01
2023-05-03T22:06:09.425Z,14.75
2023-05-03T22:08:37.556Z,14.96
2023-05-03T22:11:06.908Z,14.71
2023-05-03T22:13:50.268Z,14.87
2023-05-03T22:16:27.544Z,14.41
2023-05-03T22:18:55.733Z,14.82
2023-05-03T22:21:23.444Z,14.79
2023-05-03T22:23:51.241Z,15.05
2023-05-03T22:26:18.969Z,14.95
2023-05-03T22:28:46.701Z,14.56
2023-05-03T22:31:14.786Z,14.59
2023-05-03T22:33:45.042Z,14.67
2023-05-03T22:36:14.550Z,14.53
2023-05-03T22:38:43.239Z,14.35
2023-05-03T22:41:11.950Z,14.53
2023-05-03T22:43:39.724Z,14.60
2023-05-03T22:46:07.894Z,14.47
2023-05-03T22:48:36.231Z,14.77
2023-05-03T22:51:06.230Z,14.43
2023-05-03T22:53:33.996Z,13.94
2023-05-03T22:56:04.320Z,14.05
2023-05-03T22:58:32.268Z,14.56
2023-05-03T23:01:00.231Z,14.80
2023-05-03T23:03:28.184Z,14.70
2023-05-03T23:05:56.178Z,13.90
2023-05-03T23:08:25.374Z,14.62
2023-05-03T23:10:54.194Z,14.49
2023-05-03T23:13:44.441Z,14.61
2023-05-03T23:16:10.703Z,14.62
2023-05-03T23:21:21.526Z,14.44
2023-05-03T23:23:50.626Z,14.57
2023-05-03T23:26:18.301Z,14.39
2023-05-03T23:28:46.366Z,14.46
2023-05-03T23:31:14.552Z,14.28
2023-05-03T23:33:42.801Z,14.31
2023-05-03T23:36:10.713Z,14.41
2023-05-03T23:38:38.513Z,14.29
2023-05-03T23:41:07.594Z,14.45
2023-05-03T23:43:35.341Z,14.28
2023-05-03T23:46:03.063Z,14.02
2023-05-03T23:48:31.549Z,14.08
2023-05-03T23:50:59.405Z,14.49
2023-05-03T23:53:27.085Z,14.27
2023-05-03T23:55:54.827Z,14.47
2023-05-03T23:58:23.962Z,14.53
